sensor_id;sensor_type;location;lat;lon;timestamp;temperature;humidity
8684;DHT22;4379;59.744;18.206;2023-02-23T00:01:58;-2.40;99.90
8684;DHT22;4379;59.744;18.206;2023-02-23T00:04:34;-2.40;99.90
8684;DHT22;4379;59.744;18.206;2023-02-23T00:07:02;-2.40;99.90
8684;DHT22;4379;59.744;18.206;2023-02-23T00:09:30;-2.40;99.90
8684;DHT22;4379;59.744;18.206;2023-02-23T00:12:03;-2.40;99.90
8684;DHT22;4379;59.744;18.206;2023-02-23T00:14:35;-2.40;99.90
8684;DHT22;4379;59.744;18.206;2023-02-23T00:17:04;-2.40;99.90
8684;DHT22;4379;59.744;18.206;2023-02-23T00:19:41;-2.30;99.90
8684;DHT22;4379;59.744;18.206;2023-02-23T00:22:11;-2.40;99.90
8684;DHT22;4379;59.744;18.206;2023-02-23T00:24:39;-2.30;99.90
8684;DHT22;4379;59.744;18.206;2023-02-23T00:27:09;-2.20;99.90
8684;DHT22;4379;59.744;18.206;2023-02-23T00:29:39;-2.20;99.90
8684;DHT22;4379;59.744;18.206;2023-02-23T00:32:06;-2.10;99.90
8684;DHT22;4379;59.744;18.206;2023-02-23T00:34:34;-2.20;99.90
8684;DHT22;4379;59.744;18.206;2023-02-23T00:37:03;-2.10;99.90
8684;DHT22;4379;59.744;18.206;2023-02-23T00:39:30;-2.20;99.90
8684;DHT22;4379;59.744;18.206;2023-02-23T00:41:58;-2.10;99.90
8684;DHT22;4379;59.744;18.206;2023-02-23T00:44:29;-2.10;99.90
8684;DHT22;4379;59.744;18.206;2023-02-23T00:47:02;-2.10;99.90
8684;DHT22;4379;59.744;18.206;2023-02-23T00:49:29;-2.10;99.90
8684;DHT22;4379;59.744;18.206;2023-02-23T00:51:56;-2.00;99.90
8684;DHT22;4379;59.744;18.206;2023-02-23T00:54:24;-2.10;99.90
8684;DHT22;4379;59.744;18.206;2023-02-23T00:56:52;-2.20;99.90
8684;DHT22;4379;59.744;18.206;2023-02-23T00:59:19;-2.10;99.90
8684;DHT22;4379;59.744;18.206;2023-02-23T01:01:47;-2.10;99.90
8684;DHT22;4379;59.744;18.206;2023-02-23T01:04:15;-2.00;99.90
8684;DHT22;4379;59.744;18.206;2023-02-23T01:06:43;-2.00;99.90
8684;DHT22;4379;59.744;18.206;2023-02-23T01:09:14;-2.00;99.90
8684;DHT22;4379;59.744;18.206;2023-02-23T01:11:42;-1.90;99.90
8684;DHT22;4379;59.744;18.206;2023-02-23T01:14:12;-2.00;99.90
8684;DHT22;4379;59.744;18.206;2023-02-23T01:16:40;-2.00;99.90
8684;DHT22;4379;59.744;18.206;2023-02-23T01:19:08;-2.10;99.90
8684;DHT22;4379;59.744;18.206;2023-02-23T01:21:39;-2.00;99.90
8684;DHT22;4379;59.744;18.206;2023-02-23T01:24:09;-2.10;99.90
8684;DHT22;4379;59.744;18.206;2023-02-23T01:26:39;-2.10;99.90
8684;DHT22;4379;59.744;18.206;2023-02-23T01:29:15;-2.20;99.90
8684;DHT22;4379;59.744;18.206;2023-02-23T01:31:45;-2.10;99.90
8684;DHT22;4379;59.744;18.206;2023-02-23T01:34:14;-2.10;99.90
8684;DHT22;4379;59.744;18.206;2023-02-23T01:36:42;-2.00;99.90
8684;DHT22;4379;59.744;18.206;2023-02-23T01:39:16;-2.00;99.90
8684;DHT22;4379;59.744;18.206;2023-02-23T01:41:45;-2.00;99.90
8684;DHT22;4379;59.744;18.206;2023-02-23T01:46:42;-1.90;99.90
8684;DHT22;4379;59.744;18.206;2023-02-23T01:49:18;-1.90;99.90
8684;DHT22;4379;59.744;18.206;2023-02-23T01:51:51;-1.80;99.90
8684;DHT22;4379;59.744;18.206;2023-02-23T01:54:26;-1.80;99.90
8684;DHT22;4379;59.744;18.206;2023-02-23T01:56:57;-1.80;99.90
8684;DHT22;4379;59.744;18.206;2023-02-23T01:59:31;-1.80;99.90
8684;DHT22;4379;59.744;18.206;2023-02-23T02:02:00;-1.90;99.90
8684;DHT22;4379;59.744;18.206;2023-02-23T02:04:36;-1.90;99.90
8684;DHT22;4379;59.744;18.206;2023-02-23T02:07:17;-2.00;99.90
8684;DHT22;4379;59.744;18.206;2023-02-23T02:09:46;-2.00;99.90
8684;DHT22;4379;59.744;18.206;2023-02-23T02:12:33;-2.00;99.90
8684;DHT22;4379;59.744;18.206;2023-02-23T02:15:02;-2.00;99.90
8684;DHT22;4379;59.744;18.206;2023-02-23T02:23:20;-1.90;99.90
8684;DHT22;4379;59.744;18.206;2023-02-23T02:26:09;-1.90;99.90
8684;DHT22;4379;59.744;18.206;2023-02-23T02:37:06;-1.90;99.90
8684;DHT22;4379;59.744;18.206;2023-02-23T02:39:54;-1.90;99.90
8684;DHT22;4379;59.744;18.206;2023-02-23T02:48:40;-1.90;99.90
8684;DHT22;4379;59.744;18.206;2023-02-23T02:51:26;-1.90;99.90
8684;DHT22;4379;59.744;18.206;2023-02-23T02:54:00;-1.80;99.90
8684;DHT22;4379;59.744;18.206;2023-02-23T02:56:40;-1.80;99.90
8684;DHT22;4379;59.744;18.206;2023-02-23T02:59:17;-1.80;99.90
8684;DHT22;4379;59.744;18.206;2023-02-23T03:02:04;-1.80;99.90
8684;DHT22;4379;59.744;18.206;2023-02-23T03:04:51;-1.80;99.90
8684;DHT22;4379;59.744;18.206;2023-02-23T03:07:49;-1.80;99.90
8684;DHT22;4379;59.744;18.206;2023-02-23T03:11:02;-1.90;99.90
8684;DHT22;4379;59.744;18.206;2023-02-23T03:17:46;-1.70;99.90
8684;DHT22;4379;59.744;18.206;2023-02-23T03:23:29;-1.70;99.90
8684;DHT22;4379;59.744;18.206;2023-02-23T03:29:28;-1.80;99.90
8684;DHT22;4379;59.744;18.206;2023-02-23T03:32:26;-1.80;99.90
8684;DHT22;4379;59.744;18.206;2023-02-23T03:35:22;-1.70;99.90
8684;DHT22;4379;59.744;18.206;2023-02-23T03:38:15;-1.70;99.90
8684;DHT22;4379;59.744;18.206;2023-02-23T03:41:05;-1.70;99.90
8684;DHT22;4379;59.744;18.206;2023-02-23T03:43:58;-1.70;99.90
8684;DHT22;4379;59.744;18.206;2023-02-23T03:46:47;-1.60;99.90
8684;DHT22;4379;59.744;18.206;2023-02-23T03:49:35;-1.70;99.90
8684;DHT22;4379;59.744;18.206;2023-02-23T03:52:46;-1.70;99.90
8684;DHT22;4379;59.744;18.206;2023-02-23T03:55:38;-1.70;99.90
8684;DHT22;4379;59.744;18.206;2023-02-23T03:58:35;-1.60;99.90
8684;DHT22;4379;59.744;18.206;2023-02-23T04:01:23;-1.60;99.90
8684;DHT22;4379;59.744;18.206;2023-02-23T04:04:10;-1.50;99.90
8684;DHT22;4379;59.744;18.206;2023-02-23T04:06:58;-1.60;99.90
8684;DHT22;4379;59.744;18.206;2023-02-23T04:09:47;-1.60;99.90
8684;DHT22;4379;59.744;18.206;2023-02-23T04:12:56;-1.60;99.90
8684;DHT22;4379;59.744;18.206;2023-02-23T04:15:56;-1.60;99.90
8684;DHT22;4379;59.744;18.206;2023-02-23T04:18:31;-1.50;99.90
8684;DHT22;4379;59.744;18.206;2023-02-23T04:21:00;-1.50;99.90
8684;DHT22;4379;59.744;18.206;2023-02-23T04:23:28;-1.50;99.90
8684;DHT22;4379;59.744;18.206;2023-02-23T04:25:56;-1.50;99.90
8684;DHT22;4379;59.744;18.206;2023-02-23T04:28:24;-1.50;99.90
8684;DHT22;4379;59.744;18.206;2023-02-23T04:30:52;-1.40;99.90
8684;DHT22;4379;59.744;18.206;2023-02-23T04:33:21;-1.50;99.90
8684;DHT22;4379;59.744;18.206;2023-02-23T04:35:48;-1.40;99.90
8684;DHT22;4379;59.744;18.206;2023-02-23T04:38:15;-1.40;99.90
8684;DHT22;4379;59.744;18.206;2023-02-23T04:40:43;-1.40;99.90
8684;DHT22;4379;59.744;18.206;2023-02-23T04:43:14;-1.40;99.90
8684;DHT22;4379;59.744;18.206;2023-02-23T04:45:41;-1.40;99.90
8684;DHT22;4379;59.744;18.206;2023-02-23T04:48:09;-1.40;99.90
8684;DHT22;4379;59.744;18.206;2023-02-23T04:50:36;-1.40;99.90
8684;DHT22;4379;59.744;18.206;2023-02-23T04:53:04;-1.40;99.90
8684;DHT22;4379;59.744;18.206;2023-02-23T04:55:31;-1.40;99.90
8684;DHT22;4379;59.744;18.206;2023-02-23T04:58:00;-1.40;99.90
8684;DHT22;4379;59.744;18.206;2023-02-23T05:00:28;-1.40;99.90
8684;DHT22;4379;59.744;18.206;2023-02-23T05:02:56;-1.40;99.90
8684;DHT22;4379;59.744;18.206;2023-02-23T05:05:24;-1.40;99.90
8684;DHT22;4379;59.744;18.206;2023-02-23T05:07:52;-1.40;99.90
8684;DHT22;4379;59.744;18.206;2023-02-23T05:10:21;-1.40;99.90
8684;DHT22;4379;59.744;18.206;2023-02-23T05:12:48;-1.40;99.90
8684;DHT22;4379;59.744;18.206;2023-02-23T05:15:16;-1.30;99.90
8684;DHT22;4379;59.744;18.206;2023-02-23T05:17:43;-1.30;99.90
8684;DHT22;4379;59.744;18.206;2023-02-23T05:20:12;-1.30;99.90
8684;DHT22;4379;59.744;18.206;2023-02-23T05:22:40;-1.30;99.90
8684;DHT22;4379;59.744;18.206;2023-02-23T05:25:08;-1.30;99.90
8684;DHT22;4379;59.744;18.206;2023-02-23T05:27:36;-1.30;99.90
8684;DHT22;4379;59.744;18.206;2023-02-23T05:30:05;-1.30;99.90
8684;DHT22;4379;59.744;18.206;2023-02-23T05:32:34;-1.30;99.90
8684;DHT22;4379;59.744;18.206;2023-02-23T05:35:02;-1.30;99.90
8684;DHT22;4379;59.744;18.206;2023-02-23T05:37:29;-1.30;99.90
8684;DHT22;4379;59.744;18.206;2023-02-23T05:39:56;-1.30;99.90
8684;DHT22;4379;59.744;18.206;2023-02-23T05:42:24;-1.20;99.90
8684;DHT22;4379;59.744;18.206;2023-02-23T05:44:51;-1.30;99.90
8684;DHT22;4379;59.744;18.206;2023-02-23T05:47:19;-1.30;99.90
8684;DHT22;4379;59.744;18.206;2023-02-23T05:49:47;-1.30;99.90
8684;DHT22;4379;59.744;18.206;2023-02-23T05:52:14;-1.20;99.90
8684;DHT22;4379;59.744;18.206;2023-02-23T05:54:42;-1.10;99.90
8684;DHT22;4379;59.744;18.206;2023-02-23T05:57:09;-1.20;99.90
8684;DHT22;4379;59.744;18.206;2023-02-23T05:59:36;-1.20;99.90
8684;DHT22;4379;59.744;18.206;2023-02-23T06:02:03;-1.20;99.90
8684;DHT22;4379;59.744;18.206;2023-02-23T06:04:32;-1.20;99.90
8684;DHT22;4379;59.744;18.206;2023-02-23T06:07:00;-1.20;99.90
8684;DHT22;4379;59.744;18.206;2023-02-23T06:09:27;-1.10;99.90
8684;DHT22;4379;59.744;18.206;2023-02-23T06:11:55;-1.20;99.90
8684;DHT22;4379;59.744;18.206;2023-02-23T06:14:22;-1.20;99.90
8684;DHT22;4379;59.744;18.206;2023-02-23T06:16:49;-1.20;99.90
8684;DHT22;4379;59.744;18.206;2023-02-23T06:19:17;-1.20;99.90
8684;DHT22;4379;59.744;18.206;2023-02-23T06:21:44;-1.20;99.90
8684;DHT22;4379;59.744;18.206;2023-02-23T06:24:12;-1.10;99.90
8684;DHT22;4379;59.744;18.206;2023-02-23T06:26:40;-1.10;99.90
8684;DHT22;4379;59.744;18.206;2023-02-23T06:29:10;-1.10;99.90
8684;DHT22;4379;59.744;18.206;2023-02-23T06:31:38;-1.00;99.90
8684;DHT22;4379;59.744;18.206;2023-02-23T06:34:06;-1.10;99.90
8684;DHT22;4379;59.744;18.206;2023-02-23T06:36:33;-1.00;99.90
8684;DHT22;4379;59.744;18.206;2023-02-23T06:39:00;-1.10;99.90
8684;DHT22;4379;59.744;18.206;2023-02-23T06:41:28;-1.10;99.90
8684;DHT22;4379;59.744;18.206;2023-02-23T06:43:55;-1.10;99.90
8684;DHT22;4379;59.744;18.206;2023-02-23T06:46:23;-1.10;99.90
8684;DHT22;4379;59.744;18.206;2023-02-23T06:48:54;-1.20;99.90
8684;DHT22;4379;59.744;18.206;2023-02-23T06:51:22;-1.00;99.90
8684;DHT22;4379;59.744;18.206;2023-02-23T06:53:50;-1.00;99.90
8684;DHT22;4379;59.744;18.206;2023-02-23T06:56:19;-1.00;99.90
8684;DHT22;4379;59.744;18.206;2023-02-23T06:58:47;-1.00;99.90
8684;DHT22;4379;59.744;18.206;2023-02-23T07:01:15;-1.10;99.90
8684;DHT22;4379;59.744;18.206;2023-02-23T07:03:42;-1.10;99.90
8684;DHT22;4379;59.744;18.206;2023-02-23T07:06:10;-1.00;99.90
8684;DHT22;4379;59.744;18.206;2023-02-23T07:08:37;-1.00;99.90
8684;DHT22;4379;59.744;18.206;2023-02-23T07:11:10;-1.00;99.90
8684;DHT22;4379;59.744;18.206;2023-02-23T07:13:39;-1.00;99.90
8684;DHT22;4379;59.744;18.206;2023-02-23T07:16:07;-1.00;99.90
8684;DHT22;4379;59.744;18.206;2023-02-23T07:18:34;-0.90;99.90
8684;DHT22;4379;59.744;18.206;2023-02-23T07:21:02;-0.80;99.90
8684;DHT22;4379;59.744;18.206;2023-02-23T07:23:30;-0.80;99.90
8684;DHT22;4379;59.744;18.206;2023-02-23T07:25:58;-0.90;99.90
8684;DHT22;4379;59.744;18.206;2023-02-23T07:28:27;-0.90;99.90
8684;DHT22;4379;59.744;18.206;2023-02-23T07:30:57;-0.80;99.90
8684;DHT22;4379;59.744;18.206;2023-02-23T07:33:25;-0.70;99.90
8684;DHT22;4379;59.744;18.206;2023-02-23T07:35:52;-0.70;99.90
8684;DHT22;4379;59.744;18.206;2023-02-23T07:38:19;-0.70;99.90
8684;DHT22;4379;59.744;18.206;2023-02-23T07:40:49;-0.70;99.90
8684;DHT22;4379;59.744;18.206;2023-02-23T07:43:17;-0.70;99.90
8684;DHT22;4379;59.744;18.206;2023-02-23T07:45:47;-0.70;99.90
8684;DHT22;4379;59.744;18.206;2023-02-23T07:48:15;-0.60;99.90
8684;DHT22;4379;59.744;18.206;2023-02-23T07:50:42;-0.50;99.90
8684;DHT22;4379;59.744;18.206;2023-02-23T07:53:10;-0.40;99.90
8684;DHT22;4379;59.744;18.206;2023-02-23T07:55:38;-0.30;99.90
8684;DHT22;4379;59.744;18.206;2023-02-23T07:58:06;-0.30;99.90
8684;DHT22;4379;59.744;18.206;2023-02-23T08:00:35;-0.30;99.90
8684;DHT22;4379;59.744;18.206;2023-02-23T08:03:05;-0.30;99.90
8684;DHT22;4379;59.744;18.206;2023-02-23T08:05:33;-0.30;99.90
8684;DHT22;4379;59.744;18.206;2023-02-23T08:08:02;-0.10;99.90
8684;DHT22;4379;59.744;18.206;2023-02-23T08:10:30;-0.20;99.90
8684;DHT22;4379;59.744;18.206;2023-02-23T08:12:58;-0.10;99.90
8684;DHT22;4379;59.744;18.206;2023-02-23T08:15:26;-0.10;99.90
8684;DHT22;4379;59.744;18.206;2023-02-23T08:17:53;0.10;99.90
8684;DHT22;4379;59.744;18.206;2023-02-23T08:20:20;0.00;99.90
8684;DHT22;4379;59.744;18.206;2023-02-23T08:22:53;0.00;99.90
8684;DHT22;4379;59.744;18.206;2023-02-23T08:25:20;0.20;99.90
8684;DHT22;4379;59.744;18.206;2023-02-23T08:27:48;0.20;99.90
8684;DHT22;4379;59.744;18.206;2023-02-23T08:30:22;0.30;99.90
8684;DHT22;4379;59.744;18.206;2023-02-23T08:32:50;0.10;99.90
8684;DHT22;4379;59.744;18.206;2023-02-23T08:35:17;0.20;99.90
8684;DHT22;4379;59.744;18.206;2023-02-23T08:37:46;0.10;99.90
8684;DHT22;4379;59.744;18.206;2023-02-23T08:40:13;0.00;99.90
8684;DHT22;4379;59.744;18.206;2023-02-23T08:42:46;0.10;99.90
8684;DHT22;4379;59.744;18.206;2023-02-23T08:45:20;0.20;99.90
8684;DHT22;4379;59.744;18.206;2023-02-23T08:47:47;0.40;99.90
8684;DHT22;4379;59.744;18.206;2023-02-23T08:50:14;0.50;99.90
8684;DHT22;4379;59.744;18.206;2023-02-23T08:52:42;0.50;99.90
8684;DHT22;4379;59.744;18.206;2023-02-23T08:55:10;0.70;99.90
8684;DHT22;4379;59.744;18.206;2023-02-23T08:57:37;0.60;99.90
8684;DHT22;4379;59.744;18.206;2023-02-23T09:00:05;0.70;99.90
8684;DHT22;4379;59.744;18.206;2023-02-23T09:02:41;0.50;99.90
8684;DHT22;4379;59.744;18.206;2023-02-23T09:05:09;0.60;99.90
8684;DHT22;4379;59.744;18.206;2023-02-23T09:07:38;0.70;99.90
8684;DHT22;4379;59.744;18.206;2023-02-23T09:10:06;1.00;99.90
8684;DHT22;4379;59.744;18.206;2023-02-23T09:12:33;1.20;99.90
8684;DHT22;4379;59.744;18.206;2023-02-23T09:15:01;1.00;99.90
8684;DHT22;4379;59.744;18.206;2023-02-23T09:17:28;0.90;99.90
8684;DHT22;4379;59.744;18.206;2023-02-23T09:19:55;1.10;99.90
8684;DHT22;4379;59.744;18.206;2023-02-23T09:22:23;1.30;99.90
8684;DHT22;4379;59.744;18.206;2023-02-23T09:24:51;1.30;99.90
8684;DHT22;4379;59.744;18.206;2023-02-23T09:27:18;1.10;99.90
8684;DHT22;4379;59.744;18.206;2023-02-23T09:29:46;1.00;99.90
8684;DHT22;4379;59.744;18.206;2023-02-23T09:32:13;1.00;99.90
8684;DHT22;4379;59.744;18.206;2023-02-23T09:34:40;1.10;99.90
8684;DHT22;4379;59.744;18.206;2023-02-23T09:37:08;1.20;99.90
8684;DHT22;4379;59.744;18.206;2023-02-23T09:39:35;1.30;99.90
8684;DHT22;4379;59.744;18.206;2023-02-23T09:42:35;1.20;99.90
8684;DHT22;4379;59.744;18.206;2023-02-23T09:48:16;1.40;99.90
8684;DHT22;4379;59.744;18.206;2023-02-23T09:50:46;1.60;99.90
8684;DHT22;4379;59.744;18.206;2023-02-23T09:53:20;1.50;99.90
8684;DHT22;4379;59.744;18.206;2023-02-23T09:55:53;1.30;99.90
8684;DHT22;4379;59.744;18.206;2023-02-23T09:58:24;1.30;99.90
8684;DHT22;4379;59.744;18.206;2023-02-23T10:03:34;1.50;99.90
8684;DHT22;4379;59.744;18.206;2023-02-23T10:06:06;1.40;99.90
8684;DHT22;4379;59.744;18.206;2023-02-23T10:12:10;1.30;99.90
8684;DHT22;4379;59.744;18.206;2023-02-23T10:17:50;1.40;99.90
8684;DHT22;4379;59.744;18.206;2023-02-23T10:23:11;1.40;99.90
8684;DHT22;4379;59.744;18.206;2023-02-23T10:25:47;1.50;99.90
8684;DHT22;4379;59.744;18.206;2023-02-23T10:28:18;1.80;99.90
8684;DHT22;4379;59.744;18.206;2023-02-23T10:30:52;1.80;99.90
8684;DHT22;4379;59.744;18.206;2023-02-23T10:33:37;1.90;99.90
8684;DHT22;4379;59.744;18.206;2023-02-23T10:36:18;1.90;99.90
8684;DHT22;4379;59.744;18.206;2023-02-23T10:38:50;1.80;99.90
8684;DHT22;4379;59.744;18.206;2023-02-23T10:41:17;1.80;99.90
8684;DHT22;4379;59.744;18.206;2023-02-23T10:43:46;1.90;99.90
8684;DHT22;4379;59.744;18.206;2023-02-23T10:46:20;1.80;99.90
8684;DHT22;4379;59.744;18.206;2023-02-23T10:48:50;2.10;99.90
8684;DHT22;4379;59.744;18.206;2023-02-23T10:51:23;2.20;99.90
8684;DHT22;4379;59.744;18.206;2023-02-23T10:53:52;2.30;99.90
8684;DHT22;4379;59.744;18.206;2023-02-23T10:56:20;2.50;99.90
8684;DHT22;4379;59.744;18.206;2023-02-23T10:58:54;2.60;99.90
8684;DHT22;4379;59.744;18.206;2023-02-23T11:01:42;2.40;99.90
8684;DHT22;4379;59.744;18.206;2023-02-23T11:04:31;2.00;99.90
8684;DHT22;4379;59.744;18.206;2023-02-23T11:07:20;2.10;99.90
8684;DHT22;4379;59.744;18.206;2023-02-23T11:09:48;2.00;99.90
8684;DHT22;4379;59.744;18.206;2023-02-23T11:12:23;2.10;99.90
8684;DHT22;4379;59.744;18.206;2023-02-23T11:14:56;2.00;99.90
8684;DHT22;4379;59.744;18.206;2023-02-23T11:17:27;2.20;99.90
8684;DHT22;4379;59.744;18.206;2023-02-23T11:20:22;2.20;99.90
8684;DHT22;4379;59.744;18.206;2023-02-23T11:22:47;2.10;99.90
8684;DHT22;4379;59.744;18.206;2023-02-23T11:25:41;1.90;99.90
8684;DHT22;4379;59.744;18.206;2023-02-23T11:28:17;2.10;99.90
8684;DHT22;4379;59.744;18.206;2023-02-23T11:30:49;2.10;99.90
8684;DHT22;4379;59.744;18.206;2023-02-23T11:33:20;2.10;99.90
8684;DHT22;4379;59.744;18.206;2023-02-23T11:35:59;2.00;99.90
8684;DHT22;4379;59.744;18.206;2023-02-23T11:38:28;1.90;99.90
8684;DHT22;4379;59.744;18.206;2023-02-23T11:41:02;2.20;99.90
8684;DHT22;4379;59.744;18.206;2023-02-23T11:43:30;2.30;99.90
8684;DHT22;4379;59.744;18.206;2023-02-23T11:45:59;2.40;99.90
8684;DHT22;4379;59.744;18.206;2023-02-23T11:48:33;2.50;99.90
8684;DHT22;4379;59.744;18.206;2023-02-23T11:51:04;2.40;99.90
8684;DHT22;4379;59.744;18.206;2023-02-23T11:53:43;2.60;99.90
8684;DHT22;4379;59.744;18.206;2023-02-23T11:56:10;2.60;99.90
8684;DHT22;4379;59.744;18.206;2023-02-23T11:58:43;2.30;99.90
8684;DHT22;4379;59.744;18.206;2023-02-23T12:01:19;2.40;99.90
8684;DHT22;4379;59.744;18.206;2023-02-23T12:03:56;2.60;99.90
8684;DHT22;4379;59.744;18.206;2023-02-23T12:06:39;2.30;99.90
8684;DHT22;4379;59.744;18.206;2023-02-23T12:09:28;2.70;99.90
8684;DHT22;4379;59.744;18.206;2023-02-23T12:12:05;2.80;99.90
8684;DHT22;4379;59.744;18.206;2023-02-23T12:14:40;2.70;99.90
8684;DHT22;4379;59.744;18.206;2023-02-23T12:17:23;2.80;99.90
8684;DHT22;4379;59.744;18.206;2023-02-23T12:20:11;2.70;99.90
8684;DHT22;4379;59.744;18.206;2023-02-23T12:22:53;2.60;99.90
8684;DHT22;4379;59.744;18.206;2023-02-23T12:25:27;2.50;99.90
8684;DHT22;4379;59.744;18.206;2023-02-23T12:31:05;2.20;99.90
8684;DHT22;4379;59.744;18.206;2023-02-23T12:33:45;2.00;99.90
8684;DHT22;4379;59.744;18.206;2023-02-23T12:41:38;2.00;99.90
8684;DHT22;4379;59.744;18.206;2023-02-23T12:50:15;2.10;99.90
8684;DHT22;4379;59.744;18.206;2023-02-23T12:52:57;2.30;99.90
8684;DHT22;4379;59.744;18.206;2023-02-23T12:55:49;2.20;99.90
8684;DHT22;4379;59.744;18.206;2023-02-23T12:59:11;2.00;99.90
8684;DHT22;4379;59.744;18.206;2023-02-23T13:07:01;2.40;99.90
8684;DHT22;4379;59.744;18.206;2023-02-23T13:12:50;2.90;99.90
8684;DHT22;4379;59.744;18.206;2023-02-23T13:18:36;2.70;99.90
8684;DHT22;4379;59.744;18.206;2023-02-23T13:21:25;2.80;99.90
8684;DHT22;4379;59.744;18.206;2023-02-23T13:24:00;2.90;99.90
8684;DHT22;4379;59.744;18.206;2023-02-23T13:31:54;2.60;99.90
8684;DHT22;4379;59.744;18.206;2023-02-23T13:34:32;2.60;99.90
8684;DHT22;4379;59.744;18.206;2023-02-23T13:37:03;2.30;99.90
8684;DHT22;4379;59.744;18.206;2023-02-23T13:53:36;1.80;99.90
8684;DHT22;4379;59.744;18.206;2023-02-23T13:56:21;1.80;99.90
8684;DHT22;4379;59.744;18.206;2023-02-23T13:59:00;1.90;99.90
8684;DHT22;4379;59.744;18.206;2023-02-23T14:01:35;2.00;99.90
8684;DHT22;4379;59.744;18.206;2023-02-23T14:04:05;2.10;99.90
8684;DHT22;4379;59.744;18.206;2023-02-23T14:06:48;2.00;99.90
8684;DHT22;4379;59.744;18.206;2023-02-23T14:09:22;1.90;99.90
8684;DHT22;4379;59.744;18.206;2023-02-23T14:19:41;1.50;99.90
8684;DHT22;4379;59.744;18.206;2023-02-23T14:22:13;1.30;99.90
8684;DHT22;4379;59.744;18.206;2023-02-23T14:24:41;1.30;99.90
8684;DHT22;4379;59.744;18.206;2023-02-23T14:29:41;1.40;99.90
8684;DHT22;4379;59.744;18.206;2023-02-23T14:34:52;1.40;99.90
8684;DHT22;4379;59.744;18.206;2023-02-23T14:40:20;1.30;99.90
8684;DHT22;4379;59.744;18.206;2023-02-23T14:42:50;1.40;99.90
8684;DHT22;4379;59.744;18.206;2023-02-23T14:45:20;1.20;99.90
8684;DHT22;4379;59.744;18.206;2023-02-23T14:48:06;1.40;99.90
8684;DHT22;4379;59.744;18.206;2023-02-23T14:50:35;1.50;99.90
8684;DHT22;4379;59.744;18.206;2023-02-23T14:53:12;1.60;99.90
8684;DHT22;4379;59.744;18.206;2023-02-23T14:55:41;1.80;99.90
8684;DHT22;4379;59.744;18.206;2023-02-23T14:58:26;1.80;99.90
8684;DHT22;4379;59.744;18.206;2023-02-23T15:00:54;2.00;99.90
8684;DHT22;4379;59.744;18.206;2023-02-23T15:03:21;2.00;99.90
8684;DHT22;4379;59.744;18.206;2023-02-23T15:05:57;2.00;99.90
8684;DHT22;4379;59.744;18.206;2023-02-23T15:08:27;1.80;99.90
8684;DHT22;4379;59.744;18.206;2023-02-23T15:11:06;1.70;99.90
8684;DHT22;4379;59.744;18.206;2023-02-23T15:13:40;1.70;99.90
8684;DHT22;4379;59.744;18.206;2023-02-23T15:16:23;1.60;99.90
8684;DHT22;4379;59.744;18.206;2023-02-23T15:18:54;1.60;99.90
8684;DHT22;4379;59.744;18.206;2023-02-23T15:21:23;1.40;99.90
8684;DHT22;4379;59.744;18.206;2023-02-23T15:23:57;1.50;99.90
8684;DHT22;4379;59.744;18.206;2023-02-23T15:26:29;1.60;99.90
8684;DHT22;4379;59.744;18.206;2023-02-23T15:29:16;1.60;99.90
8684;DHT22;4379;59.744;18.206;2023-02-23T15:31:46;1.50;99.90
8684;DHT22;4379;59.744;18.206;2023-02-23T15:34:21;1.50;99.90
8684;DHT22;4379;59.744;18.206;2023-02-23T15:39:27;1.50;99.90
8684;DHT22;4379;59.744;18.206;2023-02-23T15:42:01;1.50;99.90
8684;DHT22;4379;59.744;18.206;2023-02-23T15:44:30;1.40;99.90
8684;DHT22;4379;59.744;18.206;2023-02-23T15:47:19;1.40;99.90
8684;DHT22;4379;59.744;18.206;2023-02-23T15:49:48;1.30;99.90
8684;DHT22;4379;59.744;18.206;2023-02-23T15:52:19;1.20;99.90
8684;DHT22;4379;59.744;18.206;2023-02-23T15:54:55;1.20;99.90
8684;DHT22;4379;59.744;18.206;2023-02-23T15:57:30;1.30;99.90
8684;DHT22;4379;59.744;18.206;2023-02-23T16:00:02;1.20;99.90
8684;DHT22;4379;59.744;18.206;2023-02-23T16:02:36;1.20;99.90
8684;DHT22;4379;59.744;18.206;2023-02-23T16:05:21;1.10;99.90
8684;DHT22;4379;59.744;18.206;2023-02-23T16:08:01;1.00;99.90
8684;DHT22;4379;59.744;18.206;2023-02-23T16:10:44;0.90;99.90
8684;DHT22;4379;59.744;18.206;2023-02-23T16:13:15;0.90;99.90
8684;DHT22;4379;59.744;18.206;2023-02-23T16:15:44;0.70;99.90
8684;DHT22;4379;59.744;18.206;2023-02-23T16:18:17;0.70;99.90
8684;DHT22;4379;59.744;18.206;2023-02-23T16:20:53;0.60;99.90
8684;DHT22;4379;59.744;18.206;2023-02-23T16:23:39;0.60;99.90
8684;DHT22;4379;59.744;18.206;2023-02-23T16:26:09;0.50;99.90
8684;DHT22;4379;59.744;18.206;2023-02-23T16:28:43;0.60;99.90
8684;DHT22;4379;59.744;18.206;2023-02-23T16:31:12;0.60;99.90
8684;DHT22;4379;59.744;18.206;2023-02-23T16:33:55;0.60;99.90
8684;DHT22;4379;59.744;18.206;2023-02-23T16:36:35;0.60;99.90
8684;DHT22;4379;59.744;18.206;2023-02-23T16:39:10;0.50;99.90
8684;DHT22;4379;59.744;18.206;2023-02-23T16:41:38;0.40;99.90
8684;DHT22;4379;59.744;18.206;2023-02-23T16:44:06;0.40;99.90
8684;DHT22;4379;59.744;18.206;2023-02-23T16:49:23;0.50;99.90
8684;DHT22;4379;59.744;18.206;2023-02-23T16:51:51;0.50;99.90
8684;DHT22;4379;59.744;18.206;2023-02-23T16:54:19;0.50;99.90
8684;DHT22;4379;59.744;18.206;2023-02-23T16:56:46;0.50;99.90
8684;DHT22;4379;59.744;18.206;2023-02-23T16:59:16;0.40;99.90
8684;DHT22;4379;59.744;18.206;2023-02-23T17:01:44;0.50;99.90
8684;DHT22;4379;59.744;18.206;2023-02-23T17:04:13;0.40;99.90
8684;DHT22;4379;59.744;18.206;2023-02-23T17:06:43;0.40;99.90
8684;DHT22;4379;59.744;18.206;2023-02-23T17:09:11;0.40;99.90
8684;DHT22;4379;59.744;18.206;2023-02-23T17:11:40;0.30;99.90
8684;DHT22;4379;59.744;18.206;2023-02-23T17:14:08;0.40;99.90
8684;DHT22;4379;59.744;18.206;2023-02-23T17:16:36;0.30;99.90
8684;DHT22;4379;59.744;18.206;2023-02-23T17:19:03;0.40;99.90
8684;DHT22;4379;59.744;18.206;2023-02-23T17:21:33;0.30;99.90
8684;DHT22;4379;59.744;18.206;2023-02-23T17:24:00;0.30;99.90
8684;DHT22;4379;59.744;18.206;2023-02-23T17:26:29;0.30;99.90
8684;DHT22;4379;59.744;18.206;2023-02-23T17:28:57;0.40;99.90
8684;DHT22;4379;59.744;18.206;2023-02-23T17:31:25;0.30;99.90
8684;DHT22;4379;59.744;18.206;2023-02-23T17:33:53;0.30;99.90
8684;DHT22;4379;59.744;18.206;2023-02-23T17:36:21;0.30;99.90
8684;DHT22;4379;59.744;18.206;2023-02-23T17:38:49;0.30;99.90
8684;DHT22;4379;59.744;18.206;2023-02-23T17:41:18;0.30;99.90
8684;DHT22;4379;59.744;18.206;2023-02-23T17:43:46;0.30;99.90
8684;DHT22;4379;59.744;18.206;2023-02-23T17:46:14;0.30;99.90
8684;DHT22;4379;59.744;18.206;2023-02-23T17:48:41;0.40;99.90
8684;DHT22;4379;59.744;18.206;2023-02-23T17:51:14;0.30;99.90
8684;DHT22;4379;59.744;18.206;2023-02-23T17:53:42;0.30;99.90
8684;DHT22;4379;59.744;18.206;2023-02-23T17:56:10;0.40;99.90
8684;DHT22;4379;59.744;18.206;2023-02-23T17:58:39;0.30;99.90
8684;DHT22;4379;59.744;18.206;2023-02-23T18:01:07;0.30;99.90
8684;DHT22;4379;59.744;18.206;2023-02-23T18:03:35;0.40;99.90
8684;DHT22;4379;59.744;18.206;2023-02-23T18:06:09;0.50;99.90
8684;DHT22;4379;59.744;18.206;2023-02-23T18:08:38;0.50;99.90
8684;DHT22;4379;59.744;18.206;2023-02-23T18:11:06;0.50;99.90
8684;DHT22;4379;59.744;18.206;2023-02-23T18:13:33;0.50;99.90
8684;DHT22;4379;59.744;18.206;2023-02-23T18:16:08;0.30;99.90
8684;DHT22;4379;59.744;18.206;2023-02-23T18:18:41;0.40;99.90
8684;DHT22;4379;59.744;18.206;2023-02-23T18:21:18;0.40;99.90
8684;DHT22;4379;59.744;18.206;2023-02-23T18:23:47;0.20;99.90
8684;DHT22;4379;59.744;18.206;2023-02-23T18:26:17;0.30;99.90